Time;durP1;ratioP1;P1;durP2;ratioP2;P2;SDS_P1;SDS_P2;PMS_P1;PMS_P2;Temp;Humidity;BMP_temperature;BMP_pressure;BME280_temperature;BME280_humidity;BME280_pressure;Samples;Min_cycle;Max_cycle;Signal;HPM_P1;HPM_P2
2024/03/07 00:02:33;;;;;;;21.63;7.70;;;;;;;;;;7415195;19;19924;-80
2024/03/07 00:05:24;;;;;;;13.02;7.50;;;;;;;;;;7413667;19;19922;-80
2024/03/07 00:08:11;;;;;;;19.83;8.07;;;;;;;;;;7414014;19;20281;-80
2024/03/07 00:10:58;;;;;;;25.35;9.20;;;;;;;;;;7414416;19;20377;-80
2024/03/07 00:13:42;;;;;;;25.27;8.38;;;;;;;;;;7412739;19;19935;-80
2024/03/07 00:16:27;;;;;;;21.83;8.45;;;;;;;;;;7410602;19;19929;-80
2024/03/07 00:19:14;;;;;;;24.35;7.75;;;;;;;;;;7414855;19;19926;-80
2024/03/07 00:22:04;;;;;;;16.08;7.07;;;;;;;;;;7412404;19;19926;-80
2024/03/07 00:24:51;;;;;;;17.75;6.93;;;;;;;;;;7413563;19;19922;-80
2024/03/07 00:27:35;;;;;;;19.13;7.40;;;;;;;;;;7412141;19;19978;-80
2024/03/07 00:30:20;;;;;;;15.40;6.75;;;;;;;;;;7411611;19;19982;-81
2024/03/07 00:33:05;;;;;;;15.52;7.70;;;;;;;;;;7413402;19;19927;-81
2024/03/07 00:35:49;;;;;;;19.98;7.68;;;;;;;;;;7414527;19;19918;-81
2024/03/07 00:38:41;;;;;;;17.98;8.13;;;;;;;;;;7413887;19;20278;-81
2024/03/07 00:41:28;;;;;;;17.60;6.88;;;;;;;;;;7415545;19;19929;-81
2024/03/07 00:44:12;;;;;;;21.85;8.40;;;;;;;;;;7413625;19;19914;-81
2024/03/07 00:58:07;;;;;;;17.48;7.03;;;;;;;;;;7409156;19;20261;-79
2024/03/07 01:00:53;;;;;;;22.20;6.85;;;;;;;;;;7405842;19;19938;-80
2024/03/07 01:03:38;;;;;;;18.20;6.97;;;;;;;;;;7408780;19;19919;-80
2024/03/07 01:06:23;;;;;;;19.08;8.00;;;;;;;;;;7406969;19;19914;-80
2024/03/07 01:09:13;;;;;;;17.08;6.13;;;;;;;;;;7406319;19;20329;-79
2024/03/07 01:12:04;;;;;;;20.35;7.97;;;;;;;;;;7409190;19;19918;-79
2024/03/07 01:14:51;;;;;;;17.90;6.93;;;;;;;;;;7407933;19;19926;-79
2024/03/07 01:17:37;;;;;;;16.88;6.80;;;;;;;;;;7409239;19;19927;-81
2024/03/07 01:20:27;;;;;;;17.63;6.10;;;;;;;;;;7407434;19;19914;-79
2024/03/07 01:23:11;;;;;;;17.20;6.43;;;;;;;;;;7407237;19;20285;-79
2024/03/07 01:25:56;;;;;;;28.95;7.80;;;;;;;;;;7408709;19;20333;-79
2024/03/07 01:28:43;;;;;;;20.85;8.10;;;;;;;;;;7409528;19;19940;-79
2024/03/07 01:31:32;;;;;;;18.83;6.75;;;;;;;;;;7405710;19;20269;-79
2024/03/07 01:34:19;;;;;;;22.65;8.25;;;;;;;;;;7409191;19;19922;-79
2024/03/07 01:37:08;;;;;;;16.75;7.40;;;;;;;;;;7404453;19;20277;-79
2024/03/07 01:39:52;;;;;;;17.63;6.43;;;;;;;;;;7409167;19;19974;-79
2024/03/07 01:42:36;;;;;;;18.50;7.15;;;;;;;;;;7408764;19;20341;-79
2024/03/07 01:45:23;;;;;;;17.17;6.47;;;;;;;;;;7405039;19;19922;-79
2024/03/07 01:48:13;;;;;;;20.70;7.88;;;;;;;;;;7409251;19;19915;-79
2024/03/07 01:50:58;;;;;;;17.48;6.50;;;;;;;;;;7409938;19;19934;-79
2024/03/07 01:53:45;;;;;;;20.45;7.85;;;;;;;;;;7408303;19;21104;-79
2024/03/07 01:56:32;;;;;;;16.08;7.00;;;;;;;;;;7404757;19;19914;-79
2024/03/07 01:59:21;;;;;;;22.40;8.30;;;;;;;;;;7408478;19;19910;-80
2024/03/07 02:02:10;;;;;;;17.33;6.90;;;;;;;;;;7406769;19;20249;-80
2024/03/07 02:04:58;;;;;;;19.02;7.60;;;;;;;;;;7418318;19;19944;-80
2024/03/07 02:07:46;;;;;;;19.05;7.45;;;;;;;;;;7413709;19;19942;-80
2024/03/07 02:10:30;;;;;;;19.65;7.32;;;;;;;;;;7417254;19;20235;-80
2024/03/07 02:13:19;;;;;;;16.35;6.97;;;;;;;;;;7409196;19;19918;-80
2024/03/07 02:16:07;;;;;;;19.90;7.03;;;;;;;;;;7407708;19;19943;-80
2024/03/07 02:18:54;;;;;;;21.08;7.35;;;;;;;;;;7410346;19;19926;-80
2024/03/07 02:21:43;;;;;;;20.98;7.22;;;;;;;;;;7418837;19;19943;-80
2024/03/07 02:24:31;;;;;;;22.40;9.27;;;;;;;;;;7421821;19;19923;-80
2024/03/07 02:27:17;;;;;;;21.38;7.97;;;;;;;;;;7407835;19;19914;-80
2024/03/07 02:30:08;;;;;;;18.98;8.05;;;;;;;;;;7407705;19;19934;-80
2024/03/07 02:32:56;;;;;;;16.70;7.50;;;;;;;;;;7409577;19;19918;-80
2024/03/07 02:35:43;;;;;;;26.58;9.02;;;;;;;;;;7409910;19;20338;-80
2024/03/07 02:38:29;;;;;;;;;;;;;;;;;;7415044;19;19917;-80
2024/03/07 02:41:14;;;;;;;21.88;7.32;;;;;;;;;;7418624;19;19944;-80
2024/03/07 02:44:03;;;;;;;15.40;6.03;;;;;;;;;;7416048;19;19914;-80
2024/03/07 02:46:49;;;;;;;25.27;8.07;;;;;;;;;;7416483;19;19922;-80
2024/03/07 02:49:34;;;;;;;19.08;7.68;;;;;;;;;;7414527;19;19911;-81
2024/03/07 02:52:21;;;;;;;23.08;9.20;;;;;;;;;;7415186;19;19926;-81
2024/03/07 02:55:13;;;;;;;26.42;9.07;;;;;;;;;;7409065;19;20349;-80
2024/03/07 02:57:58;;;;;;;24.67;9.55;;;;;;;;;;7408185;19;19974;-80
2024/03/07 03:00:42;;;;;;;27.23;9.93;;;;;;;;;;7405453;19;19918;-81
2024/03/07 03:03:31;;;;;;;31.08;9.70;;;;;;;;;;7407932;19;19925;-81
2024/03/07 03:06:15;;;;;;;27.63;9.75;;;;;;;;;;7406165;19;19918;-80
2024/03/07 03:09:06;;;;;;;22.30;8.90;;;;;;;;;;7407828;19;19931;-80
2024/03/07 03:11:55;;;;;;;27.30;9.82;;;;;;;;;;7404875;19;20319;-80
2024/03/07 03:14:39;;;;;;;21.10;8.43;;;;;;;;;;7407234;19;20266;-80
2024/03/07 03:17:25;;;;;;;23.80;10.32;;;;;;;;;;7405528;19;20293;-80
2024/03/07 03:20:24;;;;;;;23.60;9.18;;;;;;;;;;7408902;19;19917;-80
2024/03/07 03:23:11;;;;;;;25.73;9.43;;;;;;;;;;7407235;19;19915;-81
2024/03/07 03:25:55;;;;;;;30.80;9.40;;;;;;;;;;7408854;19;19962;-81
2024/03/07 03:28:44;;;;;;;25.90;8.70;;;;;;;;;;7406837;19;19914;-81
2024/03/07 03:31:31;;;;;;;24.23;9.13;;;;;;;;;;7406467;19;19939;-81
2024/03/07 03:34:20;;;;;;;19.80;8.55;;;;;;;;;;7406969;19;19922;-81
2024/03/07 03:37:09;;;;;;;20.60;8.25;;;;;;;;;;7406625;19;19914;-81
2024/03/07 03:39:57;;;;;;;18.23;8.57;;;;;;;;;;7406919;19;19931;-81
2024/03/07 03:42:44;;;;;;;24.20;9.27;;;;;;;;;;7407174;19;19926;-81
2024/03/07 03:45:33;;;;;;;23.08;8.85;;;;;;;;;;7406299;19;20449;-81
2024/03/07 03:48:20;;;;;;;24.48;10.30;;;;;;;;;;7405435;19;19952;-81
2024/03/07 03:51:05;;;;;;;17.10;7.72;;;;;;;;;;7408670;19;19933;-81
2024/03/07 03:53:54;;;;;;;27.08;8.80;;;;;;;;;;7407528;19;19918;-81
2024/03/07 03:56:40;;;;;;;22.33;8.15;;;;;;;;;;7410362;19;19999;-81
2024/03/07 03:59:27;;;;;;;19.58;8.27;;;;;;;;;;7412112;19;19911;-81
2024/03/07 04:02:14;;;;;;;29.05;8.40;;;;;;;;;;7410546;19;20360;-81
2024/03/07 04:05:00;;;;;;;23.85;8.48;;;;;;;;;;7408754;19;20253;-81
2024/03/07 04:07:47;;;;;;;21.35;9.45;;;;;;;;;;7416996;19;19957;-81
2024/03/07 04:10:34;;;;;;;20.98;9.18;;;;;;;;;;7413744;19;19911;-82
2024/03/07 04:13:23;;;;;;;19.25;7.93;;;;;;;;;;7415482;19;20214;-81
2024/03/07 04:16:09;;;;;;;19.77;6.95;;;;;;;;;;7412100;19;20361;-81
2024/03/07 04:18:56;;;;;;;25.05;8.73;;;;;;;;;;7415192;19;20258;-81
2024/03/07 04:21:45;;;;;;;20.95;8.75;;;;;;;;;;7412453;19;19923;-82
2024/03/07 04:24:29;;;;;;;;;;;;;;;;;;7414404;19;19997;-81
2024/03/07 04:27:16;;;;;;;18.40;7.55;;;;;;;;;;7410964;19;19930;-81
2024/03/07 04:30:03;;;;;;;;;;;;;;;;;;7412083;19;19923;-81
2024/03/07 04:32:47;;;;;;;13.82;7.25;;;;;;;;;;7413605;19;20317;-81
2024/03/07 04:35:34;;;;;;;;;;;;;;;;;;7411937;19;20409;-81
2024/03/07 04:38:18;;;;;;;15.48;6.82;;;;;;;;;;7408564;19;20452;-81
2024/03/07 04:41:05;;;;;;;16.92;7.32;;;;;;;;;;7413383;19;20333;-81
2024/03/07 04:43:51;;;;;;;19.02;7.97;;;;;;;;;;7410410;19;20023;-81
2024/03/07 04:46:36;;;;;;;22.67;8.18;;;;;;;;;;7408353;19;19918;-81
2024/03/07 04:49:23;;;;;;;23.95;8.15;;;;;;;;;;7410831;19;19910;-81
2024/03/07 04:52:10;;;;;;;17.27;6.30;;;;;;;;;;7411827;19;19919;-81
2024/03/07 04:54:58;;;;;;;19.95;7.43;;;;;;;;;;7409963;19;19906;-81
2024/03/07 04:57:45;;;;;;;15.65;7.57;;;;;;;;;;7408729;19;20322;-81
2024/03/07 05:00:31;;;;;;;19.58;6.95;;;;;;;;;;7410881;19;19914;-81
2024/03/07 05:03:18;;;;;;;19.85;7.28;;;;;;;;;;7411840;19;19926;-81
2024/03/07 05:06:05;;;;;;;15.75;6.18;;;;;;;;;;7410707;19;20253;-81
2024/03/07 05:08:52;;;;;;;22.38;7.70;;;;;;;;;;7409787;19;20353;-81
2024/03/07 05:11:39;;;;;;;20.20;8.10;;;;;;;;;;7410141;19;19919;-81
2024/03/07 05:14:24;;;;;;;18.00;7.25;;;;;;;;;;7409070;19;19927;-81
2024/03/07 05:17:08;;;;;;;18.67;8.00;;;;;;;;;;7408939;19;19986;-80
2024/03/07 05:19:59;;;;;;;17.80;7.90;;;;;;;;;;7410102;19;19918;-80
2024/03/07 05:22:50;;;;;;;20.27;8.30;;;;;;;;;;7408970;19;19919;-80
2024/03/07 05:25:40;;;;;;;20.65;7.70;;;;;;;;;;7408384;19;19922;-81
2024/03/07 05:28:24;;;;;;;21.38;7.43;;;;;;;;;;7410369;19;20280;-80
2024/03/07 05:31:12;;;;;;;;;;;;;;;;;;7408367;19;19922;-80
2024/03/07 05:34:03;;;;;;;16.30;7.28;;;;;;;;;;7407817;19;20405;-80
2024/03/07 05:36:49;;;;;;;18.17;7.75;;;;;;;;;;7408593;19;19914;-80
2024/03/07 05:39:36;;;;;;;19.17;7.60;;;;;;;;;;7408941;19;19918;-80
2024/03/07 05:42:24;;;;;;;21.75;9.15;;;;;;;;;;7411462;19;20002;-79
2024/03/07 05:45:13;;;;;;;23.30;8.82;;;;;;;;;;7408242;19;19925;-80
2024/03/07 05:48:15;;;;;;;22.85;9.43;;;;;;;;;;7411205;19;19978;-80
2024/03/07 05:51:00;;;;;;;22.45;9.00;;;;;;;;;;7408619;19;19926;-81
2024/03/07 05:53:44;;;;;;;18.35;9.15;;;;;;;;;;7410399;19;19957;-81
2024/03/07 05:56:35;;;;;;;20.98;9.10;;;;;;;;;;7408768;19;19922;-80
2024/03/07 05:59:24;;;;;;;22.67;8.68;;;;;;;;;;7409303;19;19914;-79
2024/03/07 06:02:08;;;;;;;18.00;7.72;;;;;;;;;;7405569;19;20250;-80
2024/03/07 06:04:55;;;;;;;17.02;6.45;;;;;;;;;;7405541;19;20330;-79
2024/03/07 06:07:39;;;;;;;21.30;8.23;;;;;;;;;;7403523;19;19927;-79
2024/03/07 06:10:28;;;;;;;20.02;8.10;;;;;;;;;;7398285;19;20355;-79
2024/03/07 06:13:13;;;;;;;18.83;6.93;;;;;;;;;;7407541;19;19931;-80
2024/03/07 06:16:04;;;;;;;21.30;7.60;;;;;;;;;;7405497;19;20330;-80
2024/03/07 06:18:48;;;;;;;19.75;7.88;;;;;;;;;;7409330;19;19970;-80
2024/03/07 06:21:33;;;;;;;20.77;8.43;;;;;;;;;;7406560;19;19918;-80
2024/03/07 06:24:22;;;;;;;19.40;7.10;;;;;;;;;;7410013;19;20275;-80
2024/03/07 06:27:15;;;;;;;24.27;8.50;;;;;;;;;;7409335;19;19919;-80
2024/03/07 06:30:02;;;;;;;21.90;8.90;;;;;;;;;;7405947;19;20348;-80
2024/03/07 06:32:49;;;;;;;19.80;7.20;;;;;;;;;;7406480;19;19993;-80
2024/03/07 06:35:38;;;;;;;19.70;8.30;;;;;;;;;;7407473;19;20373;-80
2024/03/07 06:38:24;;;;;;;17.98;8.48;;;;;;;;;;7407704;19;19939;-80
2024/03/07 06:41:10;;;;;;;21.67;8.85;;;;;;;;;;7406843;19;19921;-80
2024/03/07 06:43:55;;;;;;;18.67;7.15;;;;;;;;;;7404593;19;19929;-79
2024/03/07 06:46:45;;;;;;;19.15;7.22;;;;;;;;;;7406309;19;19929;-80
2024/03/07 06:49:35;;;;;;;23.52;9.25;;;;;;;;;;7405448;19;19929;-80
2024/03/07 06:52:19;;;;;;;24.15;8.35;;;;;;;;;;7406793;19;19919;-80
2024/03/07 06:55:07;;;;;;;24.38;9.95;;;;;;;;;;7406266;19;19915;-80
2024/03/07 06:57:54;;;;;;;36.88;11.80;;;;;;;;;;7404269;19;19988;-80
2024/03/07 07:00:41;;;;;;;28.50;11.55;;;;;;;;;;7408061;19;19930;-80
2024/03/07 07:03:25;;;;;;;38.78;13.73;;;;;;;;;;7407635;19;20349;-79
2024/03/07 07:06:12;;;;;;;31.88;12.10;;;;;;;;;;7406774;19;19911;-79
2024/03/07 07:08:58;;;;;;;31.75;12.63;;;;;;;;;;7408943;19;20410;-79
2024/03/07 07:11:45;;;;;;;26.73;11.02;;;;;;;;;;7403450;19;19918;-79
2024/03/07 07:14:29;;;;;;;23.83;10.13;;;;;;;;;;7405639;19;19995;-80
2024/03/07 07:17:16;;;;;;;24.90;10.88;;;;;;;;;;7404417;19;19914;-80
2024/03/07 07:20:09;;;;;;;24.70;11.15;;;;;;;;;;7405603;19;19921;-80
2024/03/07 07:22:57;;;;;;;23.10;10.00;;;;;;;;;;7403948;19;19978;-80
2024/03/07 07:25:47;;;;;;;22.35;9.20;;;;;;;;;;7404610;19;19922;-80
2024/03/07 07:28:31;;;;;;;21.52;10.15;;;;;;;;;;7404635;19;19974;-79
2024/03/07 07:31:15;;;;;;;20.65;9.60;;;;;;;;;;7404263;19;19923;-79
2024/03/07 07:34:00;;;;;;;19.73;8.27;;;;;;;;;;7399299;19;19922;-79
2024/03/07 07:36:44;;;;;;;23.33;9.25;;;;;;;;;;7406091;19;19939;-79
2024/03/07 07:39:33;;;;;;;22.48;9.35;;;;;;;;;;7411234;19;19922;-79
2024/03/07 07:42:17;;;;;;;26.70;11.38;;;;;;;;;;7407880;19;20039;-80
2024/03/07 07:45:06;;;;;;;17.65;8.57;;;;;;;;;;7412580;19;20265;-79
2024/03/07 07:47:54;;;;;;;21.15;8.98;;;;;;;;;;7408360;19;19915;-79
2024/03/07 07:50:38;;;;;;;23.70;9.18;;;;;;;;;;7409935;19;20323;-80
2024/03/07 07:53:28;;;;;;;24.10;9.40;;;;;;;;;;7412422;19;19922;-79
2024/03/07 07:56:15;;;;;;;18.63;8.60;;;;;;;;;;7410916;19;19911;-79
2024/03/07 07:59:03;;;;;;;22.67;9.75;;;;;;;;;;7411026;19;20246;-80
2024/03/07 08:01:55;;;;;;;20.98;8.95;;;;;;;;;;7409777;19;19910;-80
2024/03/07 08:04:39;;;;;;;18.77;8.60;;;;;;;;;;7412736;19;19929;-79
2024/03/07 08:07:28;;;;;;;28.35;11.07;;;;;;;;;;7408215;19;20254;-79
2024/03/07 08:10:18;;;;;;;23.77;9.38;;;;;;;;;;7412382;19;19949;-79
2024/03/07 08:13:06;;;;;;;19.33;8.82;;;;;;;;;;7405243;19;19949;-79
2024/03/07 08:15:53;;;;;;;23.02;9.98;;;;;;;;;;7406488;19;19930;-79
2024/03/07 08:18:42;;;;;;;23.23;9.30;;;;;;;;;;7406219;19;19914;-79
2024/03/07 08:21:27;;;;;;;18.48;8.68;;;;;;;;;;7411680;19;19990;-79
2024/03/07 08:24:13;;;;;;;17.20;8.63;;;;;;;;;;7411023;19;19923;-80
2024/03/07 08:26:57;;;;;;;20.70;9.60;;;;;;;;;;7415082;19;19918;-80
2024/03/07 08:29:44;;;;;;;20.45;8.82;;;;;;;;;;7412963;19;19978;-80
2024/03/07 08:32:31;;;;;;;19.63;7.60;;;;;;;;;;7410352;19;20023;-80
2024/03/07 08:35:16;;;;;;;19.92;9.52;;;;;;;;;;7414078;19;19942;-80
2024/03/07 08:38:00;;;;;;;20.58;8.40;;;;;;;;;;7416737;19;19929;-80
2024/03/07 08:40:45;;;;;;;23.15;9.68;;;;;;;;;;7415970;19;20276;-80
2024/03/07 08:43:29;;;;;;;22.50;9.18;;;;;;;;;;7413183;19;19950;-80
2024/03/07 08:46:20;;;;;;;19.40;7.97;;;;;;;;;;7416160;19;19915;-80
2024/03/07 08:49:05;;;;;;;19.30;8.55;;;;;;;;;;7416411;19;19910;-80
2024/03/07 08:51:52;;;;;;;19.33;9.18;;;;;;;;;;7413682;19;19931;-80
2024/03/07 08:54:41;;;;;;;28.13;8.95;;;;;;;;;;7412897;19;19911;-79
2024/03/07 08:57:25;;;;;;;19.83;9.07;;;;;;;;;;7414528;19;19918;-80
2024/03/07 09:00:15;;;;;;;22.27;10.25;;;;;;;;;;7419687;19;19941;-80
2024/03/07 09:03:09;;;;;;;17.05;8.65;;;;;;;;;;7418567;19;19915;-80
2024/03/07 09:05:56;;;;;;;20.88;8.38;;;;;;;;;;7418253;19;19918;-80
2024/03/07 09:08:43;;;;;;;18.38;8.07;;;;;;;;;;7417838;19;19913;-80
2024/03/07 09:11:29;;;;;;;16.15;7.97;;;;;;;;;;7413864;19;19918;-80
2024/03/07 09:14:16;;;;;;;22.10;9.63;;;;;;;;;;7415741;19;19914;-80
2024/03/07 09:17:00;;;;;;;16.63;7.43;;;;;;;;;;7416536;19;19906;-81
2024/03/07 09:19:52;;;;;;;15.45;7.43;;;;;;;;;;7418850;19;19942;-80
2024/03/07 09:22:39;;;;;;;21.73;6.22;;;;;;;;;;7414310;19;19911;-79
2024/03/07 09:25:25;;;;;;;17.90;8.02;;;;;;;;;;7413459;19;20324;-80
2024/03/07 09:28:12;;;;;;;20.45;8.48;;;;;;;;;;7414670;19;20006;-80
2024/03/07 09:30:58;;;;;;;13.82;7.18;;;;;;;;;;7415457;19;19911;-79
2024/03/07 09:33:43;;;;;;;17.63;8.52;;;;;;;;;;7415788;19;20235;-79
2024/03/07 09:36:32;;;;;;;22.02;9.07;;;;;;;;;;7412881;19;19918;-80
2024/03/07 09:39:16;;;;;;;21.10;9.77;;;;;;;;;;7416864;19;19923;-79
2024/03/07 09:42:03;;;;;;;18.80;8.68;;;;;;;;;;7411574;19;19922;-80
2024/03/07 09:44:54;;;;;;;20.73;8.00;;;;;;;;;;7413749;19;19923;-79
2024/03/07 09:47:40;;;;;;;21.13;9.27;;;;;;;;;;7414371;19;19940;-79
2024/03/07 09:50:32;;;;;;;19.55;9.20;;;;;;;;;;7414981;19;20338;-80
2024/03/07 09:53:25;;;;;;;21.63;9.45;;;;;;;;;;7415536;19;19922;-80
2024/03/07 09:56:14;;;;;;;20.30;10.18;;;;;;;;;;7414618;19;19950;-80
2024/03/07 09:59:01;;;;;;;21.10;10.25;;;;;;;;;;7413636;19;20294;-79
2024/03/07 10:01:48;;;;;;;18.42;9.23;;;;;;;;;;7413978;19;19974;-79
2024/03/07 10:04:48;;;;;;;17.50;7.60;;;;;;;;;;7408188;19;20356;-79
2024/03/07 10:07:34;;;;;;;15.70;7.47;;;;;;;;;;7409765;19;19937;-79
2024/03/07 10:10:23;;;;;;;19.10;8.98;;;;;;;;;;7409796;19;19911;-80
2024/03/07 10:13:09;;;;;;;19.50;8.15;;;;;;;;;;7412410;19;19919;-80
2024/03/07 10:15:56;;;;;;;20.60;9.02;;;;;;;;;;7407069;19;20334;-79
2024/03/07 10:18:46;;;;;;;24.00;9.73;;;;;;;;;;7410705;19;19922;-79
2024/03/07 10:21:30;;;;;;;24.02;9.25;;;;;;;;;;7409328;19;20289;-79
2024/03/07 10:24:15;;;;;;;18.35;8.73;;;;;;;;;;7410101;19;19919;-79
2024/03/07 10:27:04;;;;;;;18.45;9.02;;;;;;;;;;7409033;19;19919;-79
2024/03/07 10:29:51;;;;;;;18.65;9.50;;;;;;;;;;7411213;19;19923;-79
2024/03/07 10:32:38;;;;;;;20.50;8.95;;;;;;;;;;7410398;19;19921;-80
2024/03/07 10:35:26;;;;;;;20.42;9.13;;;;;;;;;;7406024;19;19938;-80
2024/03/07 10:38:13;;;;;;;17.35;8.90;;;;;;;;;;7410626;19;19911;-80
2024/03/07 10:41:02;;;;;;;25.17;10.43;;;;;;;;;;7412109;19;19923;-80
2024/03/07 10:43:56;;;;;;;21.67;9.48;;;;;;;;;;7413883;19;19921;-79
2024/03/07 10:46:41;;;;;;;19.35;9.80;;;;;;;;;;7407886;19;20260;-80
2024/03/07 10:49:28;;;;;;;21.52;8.55;;;;;;;;;;7410117;19;19915;-79
2024/03/07 10:52:23;;;;;;;23.67;10.93;;;;;;;;;;7410503;19;19910;-80
2024/03/07 10:55:17;;;;;;;18.15;9.77;;;;;;;;;;7412434;19;19922;-79
2024/03/07 10:58:08;;;;;;;19.90;9.55;;;;;;;;;;7408950;19;19915;-79
2024/03/07 11:01:03;;;;;;;24.23;10.45;;;;;;;;;;7412494;19;19918;-79
2024/03/07 11:03:52;;;;;;;26.38;11.23;;;;;;;;;;7413642;19;20326;-79
2024/03/07 11:06:41;;;;;;;19.58;9.30;;;;;;;;;;7411502;19;20264;-79
2024/03/07 11:09:29;;;;;;;25.48;11.13;;;;;;;;;;7404217;19;19923;-79
2024/03/07 11:12:16;;;;;;;20.17;10.23;;;;;;;;;;7412249;19;19970;-79
2024/03/07 11:15:00;;;;;;;22.77;9.95;;;;;;;;;;7414472;19;19914;-79
2024/03/07 11:17:53;;;;;;;19.80;10.18;;;;;;;;;;7418419;19;20340;-80
2024/03/07 11:20:43;;;;;;;19.17;8.82;;;;;;;;;;7416934;19;19918;-79
2024/03/07 11:23:29;;;;;;;28.80;11.77;;;;;;;;;;7419141;19;19915;-79
2024/03/07 11:26:15;;;;;;;18.85;9.05;;;;;;;;;;7417364;19;19936;-80
2024/03/07 11:29:03;;;;;;;24.13;11.90;;;;;;;;;;7417227;19;19911;-80
2024/03/07 11:31:56;;;;;;;22.45;11.07;;;;;;;;;;7417312;19;19914;-80
2024/03/07 11:34:46;;;;;;;23.63;10.45;;;;;;;;;;7415050;19;19978;-80
2024/03/07 11:37:46;;;;;;;21.83;9.10;;;;;;;;;;7410947;19;20400;-79
2024/03/07 11:40:48;;;;;;;23.80;10.55;;;;;;;;;;7415624;19;20239;-79
2024/03/07 11:43:33;;;;;;;18.20;9.20;;;;;;;;;;7417365;19;19938;-79
2024/03/07 11:46:21;;;;;;;24.83;9.85;;;;;;;;;;7415127;19;19910;-79
2024/03/07 11:49:13;;;;;;;19.58;9.65;;;;;;;;;;7416562;19;20312;-79
2024/03/07 11:52:04;;;;;;;;;;;;;;;;;;7416483;19;19910;-79
2024/03/07 11:54:52;;;;;;;15.32;7.47;;;;;;;;;;7415454;19;19907;-79
2024/03/07 11:57:40;;;;;;;18.75;9.55;;;;;;;;;;7413325;19;19918;-79
2024/03/07 12:00:34;;;;;;;17.50;8.27;;;;;;;;;;7413342;19;19986;-80
2024/03/07 12:03:25;;;;;;;20.67;9.60;;;;;;;;;;7417069;19;19914;-80
2024/03/07 12:06:13;;;;;;;18.13;8.90;;;;;;;;;;7414040;19;20340;-80
2024/03/07 12:09:01;;;;;;;17.73;8.45;;;;;;;;;;7412686;19;19922;-80
2024/03/07 12:11:45;;;;;;;14.80;8.15;;;;;;;;;;7413421;19;19926;-79
2024/03/07 12:14:33;;;;;;;18.70;8.75;;;;;;;;;;7413980;19;19907;-79
2024/03/07 12:17:21;;;;;;;19.27;9.38;;;;;;;;;;7417627;19;19907;-79
2024/03/07 12:20:24;;;;;;;15.25;7.40;;;;;;;;;;7413918;19;19918;-79
2024/03/07 12:23:11;;;;;;;15.23;7.55;;;;;;;;;;7417614;19;19919;-80
2024/03/07 12:26:07;;;;;;;14.65;7.38;;;;;;;;;;7411955;19;19919;-78
2024/03/07 12:28:54;;;;;;;13.02;6.93;;;;;;;;;;7414578;19;19925;-78
2024/03/07 12:31:41;;;;;;;14.55;7.95;;;;;;;;;;7413740;19;19921;-79
2024/03/07 12:34:30;;;;;;;11.88;6.93;;;;;;;;;;7414823;19;19922;-79
2024/03/07 12:37:26;;;;;;;14.20;7.18;;;;;;;;;;7413250;19;19910;-79
2024/03/07 12:40:19;;;;;;;14.00;7.03;;;;;;;;;;7416947;19;19919;-79
2024/03/07 12:43:16;;;;;;;16.90;6.72;;;;;;;;;;7416598;19;19914;-80
2024/03/07 12:49:00;;;;;;;16.33;7.93;;;;;;;;;;7423181;19;19918;-79
2024/03/07 12:51:44;;;;;;;11.80;7.07;;;;;;;;;;7434114;19;19910;-79
2024/03/07 12:54:31;;;;;;;14.02;7.70;;;;;;;;;;7414740;19;19915;-81
2024/03/07 12:57:16;;;;;;;12.10;7.28;;;;;;;;;;7416624;19;19919;-81
2024/03/07 13:00:16;;;;;;;15.60;7.22;;;;;;;;;;7415576;19;19910;-81
2024/03/07 13:03:03;;;;;;;13.50;7.43;;;;;;;;;;7417001;19;19915;-81
2024/03/07 13:05:50;;;;;;;16.58;7.72;;;;;;;;;;7416234;19;19914;-81
2024/03/07 13:08:37;;;;;;;17.38;7.93;;;;;;;;;;7416281;19;19942;-81
2024/03/07 13:11:24;;;;;;;15.85;8.20;;;;;;;;;;7416601;19;19917;-81
2024/03/07 13:14:13;;;;;;;16.08;7.78;;;;;;;;;;7414945;19;19966;-80
2024/03/07 13:17:04;;;;;;;16.75;8.57;;;;;;;;;;7414920;19;19938;-80
2024/03/07 13:19:59;;;;;;;14.20;6.43;;;;;;;;;;7415655;19;19915;-81
2024/03/07 13:22:47;;;;;;;15.85;8.00;;;;;;;;;;7414683;19;19919;-81
2024/03/07 13:25:34;;;;;;;16.38;8.23;;;;;;;;;;7415256;19;19922;-81
2024/03/07 13:28:24;;;;;;;14.20;7.20;;;;;;;;;;7416207;19;19919;-81
2024/03/07 13:31:08;;;;;;;14.18;7.30;;;;;;;;;;7415925;19;20338;-82
2024/03/07 13:33:55;;;;;;;17.13;8.18;;;;;;;;;;7421924;19;19925;-81
2024/03/07 13:36:40;;;;;;;17.08;7.72;;;;;;;;;;7423114;19;19918;-80
2024/03/07 13:39:27;;;;;;;13.27;6.65;;;;;;;;;;7424395;19;19921;-80
2024/03/07 13:42:11;;;;;;;16.88;8.52;;;;;;;;;;7421541;19;19919;-80
2024/03/07 13:44:58;;;;;;;15.80;7.68;;;;;;;;;;7413487;19;19917;-80
2024/03/07 13:47:48;;;;;;;15.30;7.82;;;;;;;;;;7415551;19;19918;-82
2024/03/07 13:50:37;;;;;;;16.45;7.45;;;;;;;;;;7419492;19;19906;-82
2024/03/07 13:53:32;;;;;;;14.15;6.93;;;;;;;;;;7411110;19;19914;-82
2024/03/07 13:56:49;;;;;;;13.32;7.18;;;;;;;;;;7414772;19;19914;-80
2024/03/07 13:59:56;;;;;;;15.15;7.63;;;;;;;;;;7410042;19;19923;-80
2024/03/07 14:03:25;;;;;;;10.43;5.95;;;;;;;;;;7412148;19;19918;-81
2024/03/07 14:06:15;;;;;;;15.80;7.15;;;;;;;;;;7409151;19;19915;-82
2024/03/07 14:09:43;;;;;;;15.93;7.10;;;;;;;;;;7411042;19;20342;-82
2024/03/07 14:12:52;;;;;;;14.18;7.88;;;;;;;;;;7410641;19;19923;-81
2024/03/07 14:16:00;;;;;;;;;;;;;;;;;;7414729;19;19906;-80
2024/03/07 14:19:22;;;;;;;13.30;6.50;;;;;;;;;;7414988;19;19918;-81
2024/03/07 14:22:37;;;;;;;13.57;6.85;;;;;;;;;;7415936;19;19925;-82
2024/03/07 14:25:57;;;;;;;17.67;7.45;;;;;;;;;;7411852;19;19920;-80
2024/03/07 14:28:56;;;;;;;14.95;7.13;;;;;;;;;;7411523;19;19911;-80
2024/03/07 14:31:44;;;;;;;17.13;7.95;;;;;;;;;;7412185;19;19926;-81
2024/03/07 14:34:50;;;;;;;20.27;7.88;;;;;;;;;;7407562;19;19915;-82
2024/03/07 14:37:52;;;;;;;19.35;8.80;;;;;;;;;;7405724;19;19933;-82
2024/03/07 14:40:39;;;;;;;16.15;8.93;;;;;;;;;;7407043;19;20337;-81
2024/03/07 14:43:30;;;;;;;19.13;8.52;;;;;;;;;;7406871;19;20019;-81
2024/03/07 14:46:19;;;;;;;14.00;7.88;;;;;;;;;;7405545;19;19926;-82
2024/03/07 14:49:08;;;;;;;16.52;8.68;;;;;;;;;;7404299;19;20389;-82
2024/03/07 14:51:53;;;;;;;17.85;8.07;;;;;;;;;;7406138;19;19915;-81
2024/03/07 14:54:41;;;;;;;17.73;8.23;;;;;;;;;;7407371;19;19925;-81
2024/03/07 14:57:26;;;;;;;14.00;7.18;;;;;;;;;;7419934;19;19914;-81
2024/03/07 15:00:18;;;;;;;16.27;7.97;;;;;;;;;;7440874;19;19949;-80
2024/03/07 15:03:06;;;;;;;15.95;7.85;;;;;;;;;;7418852;19;19966;-80
2024/03/07 15:05:51;;;;;;;15.02;7.43;;;;;;;;;;7410510;19;19923;-81
2024/03/07 15:08:40;;;;;;;14.88;7.15;;;;;;;;;;7413632;19;19914;-81
2024/03/07 15:11:32;;;;;;;16.85;7.63;;;;;;;;;;7413111;19;19935;-81
2024/03/07 15:14:16;;;;;;;16.63;7.95;;;;;;;;;;7410167;19;19982;-81
2024/03/07 15:17:00;;;;;;;15.82;7.07;;;;;;;;;;7411136;19;19929;-81
2024/03/07 15:19:48;;;;;;;13.65;7.10;;;;;;;;;;7410159;19;20274;-81
2024/03/07 15:22:36;;;;;;;9.73;5.78;;;;;;;;;;7410818;19;19927;-81
2024/03/07 15:25:22;;;;;;;14.70;7.75;;;;;;;;;;7409585;19;19907;-80
2024/03/07 15:28:09;;;;;;;16.40;6.47;;;;;;;;;;7409520;19;20334;-80
2024/03/07 15:30:59;;;;;;;;;;;;;;;;;;7414061;19;19907;-80
2024/03/07 15:33:44;;;;;;;15.82;7.57;;;;;;;;;;7409310;19;19957;-80
2024/03/07 15:36:31;;;;;;;12.35;6.82;;;;;;;;;;7407371;19;19941;-80
2024/03/07 15:39:29;;;;;;;16.45;7.78;;;;;;;;;;7411462;19;19930;-80
2024/03/07 15:42:14;;;;;;;16.73;6.93;;;;;;;;;;7411071;19;19919;-80
2024/03/07 15:45:11;;;;;;;16.77;8.07;;;;;;;;;;7409381;19;19915;-81
2024/03/07 15:48:04;;;;;;;17.92;7.72;;;;;;;;;;7400951;19;19910;-81
2024/03/07 15:50:51;;;;;;;13.25;6.97;;;;;;;;;;7409649;19;20328;-81
2024/03/07 15:53:35;;;;;;;13.80;7.05;;;;;;;;;;7411144;19;19941;-81
2024/03/07 15:56:24;;;;;;;14.40;7.47;;;;;;;;;;7409374;19;19922;-81
2024/03/07 15:59:09;;;;;;;17.75;8.63;;;;;;;;;;7411914;19;20353;-80
2024/03/07 16:01:58;;;;;;;13.45;7.00;;;;;;;;;;7417161;19;19919;-80
2024/03/07 16:04:45;;;;;;;15.50;6.97;;;;;;;;;;7418330;19;19911;-80
2024/03/07 16:07:30;;;;;;;14.98;7.50;;;;;;;;;;7415687;19;19915;-81
2024/03/07 16:10:23;;;;;;;13.98;7.15;;;;;;;;;;7417325;19;19927;-81
2024/03/07 16:13:14;;;;;;;14.77;5.75;;;;;;;;;;7417352;19;20381;-81
2024/03/07 16:16:04;;;;;;;14.52;7.28;;;;;;;;;;7412928;19;19923;-81
2024/03/07 16:18:52;;;;;;;14.57;7.50;;;;;;;;;;7414577;19;19935;-81
2024/03/07 16:21:37;;;;;;;15.02;7.18;;;;;;;;;;7414159;19;20014;-81
2024/03/07 16:24:24;;;;;;;14.13;7.25;;;;;;;;;;7415749;19;19910;-81
2024/03/07 16:27:08;;;;;;;15.82;7.40;;;;;;;;;;7413696;19;19942;-80
2024/03/07 16:29:53;;;;;;;18.38;7.80;;;;;;;;;;7413750;19;19922;-80
2024/03/07 16:32:47;;;;;;;16.90;7.97;;;;;;;;;;7414602;19;19972;-80
2024/03/07 16:35:37;;;;;;;15.85;8.45;;;;;;;;;;7413562;19;19954;-80
2024/03/07 16:38:25;;;;;;;15.90;7.13;;;;;;;;;;7414756;19;19919;-80
2024/03/07 16:41:12;;;;;;;14.20;6.55;;;;;;;;;;7415117;19;19911;-80
2024/03/07 16:44:01;;;;;;;12.45;5.93;;;;;;;;;;7413402;19;19910;-80
2024/03/07 16:46:46;;;;;;;17.58;6.40;;;;;;;;;;7409641;19;19915;-80
2024/03/07 16:49:30;;;;;;;17.08;6.25;;;;;;;;;;7413375;19;19966;-80
2024/03/07 16:52:23;;;;;;;11.27;5.70;;;;;;;;;;7411891;19;20369;-80